sensor_id;sensor_type;location;lat;lon;timestamp;P1;durP1;ratioP1;P2;durP2;ratioP2
38725;SDS011;24474;48.906;8.808;2023-05-10T00:02:00;1.17;;;0.30;;
38725;SDS011;24474;48.906;8.808;2023-05-10T00:04:27;2.92;;;0.35;;
38725;SDS011;24474;48.906;8.808;2023-05-10T00:06:54;0.35;;;0.20;;
38725;SDS011;24474;48.906;8.808;2023-05-10T00:09:21;0.40;;;0.30;;
38725;SDS011;24474;48.906;8.808;2023-05-10T00:11:48;0.65;;;0.38;;
38725;SDS011;24474;48.906;8.808;2023-05-10T00:14:16;0.40;;;0.40;;
38725;SDS011;24474;48.906;8.808;2023-05-10T00:16:44;0.90;;;0.30;;
38725;SDS011;24474;48.906;8.808;2023-05-10T00:19:11;1.83;;;0.30;;
38725;SDS011;24474;48.906;8.808;2023-05-10T00:21:36;0.47;;;0.38;;
38725;SDS011;24474;48.906;8.808;2023-05-10T00:24:03;2.17;;;0.30;;
38725;SDS011;24474;48.906;8.808;2023-05-10T00:26:30;1.00;;;0.38;;
38725;SDS011;24474;48.906;8.808;2023-05-10T00:28:56;0.40;;;0.40;;
38725;SDS011;24474;48.906;8.808;2023-05-10T00:31:39;0.40;;;0.40;;
38725;SDS011;24474;48.906;8.808;2023-05-10T00:34:06;2.95;;;0.40;;
38725;SDS011;24474;48.906;8.808;2023-05-10T00:36:33;0.47;;;0.47;;
38725;SDS011;24474;48.906;8.808;2023-05-10T00:39:00;0.55;;;0.50;;
38725;SDS011;24474;48.906;8.808;2023-05-10T00:41:27;0.50;;;0.50;;
38725;SDS011;24474;48.906;8.808;2023-05-10T00:43:53;0.50;;;0.50;;
38725;SDS011;24474;48.906;8.808;2023-05-10T00:46:20;1.75;;;0.60;;
38725;SDS011;24474;48.906;8.808;2023-05-10T00:48:46;0.60;;;0.60;;
38725;SDS011;24474;48.906;8.808;2023-05-10T00:51:13;1.85;;;0.40;;
38725;SDS011;24474;48.906;8.808;2023-05-10T00:53:40;0.82;;;0.65;;
38725;SDS011;24474;48.906;8.808;2023-05-10T00:56:06;0.50;;;0.50;;
38725;SDS011;24474;48.906;8.808;2023-05-10T00:58:33;0.95;;;0.70;;
38725;SDS011;24474;48.906;8.808;2023-05-10T01:00:59;0.70;;;0.70;;
38725;SDS011;24474;48.906;8.808;2023-05-10T01:03:27;1.95;;;0.80;;
38725;SDS011;24474;48.906;8.808;2023-05-10T01:05:55;0.70;;;0.60;;
38725;SDS011;24474;48.906;8.808;2023-05-10T01:08:22;1.08;;;0.98;;
38725;SDS011;24474;48.906;8.808;2023-05-10T01:10:48;1.75;;;0.88;;
38725;SDS011;24474;48.906;8.808;2023-05-10T01:13:18;0.95;;;0.65;;
38725;SDS011;24474;48.906;8.808;2023-05-10T01:15:59;0.70;;;0.70;;
38725;SDS011;24474;48.906;8.808;2023-05-10T01:18:27;0.70;;;0.70;;
38725;SDS011;24474;48.906;8.808;2023-05-10T01:21:01;2.80;;;0.90;;
38725;SDS011;24474;48.906;8.808;2023-05-10T01:36:03;1.20;;;0.93;;
38725;SDS011;24474;48.906;8.808;2023-05-10T01:41:36;1.23;;;0.95;;
38725;SDS011;24474;48.906;8.808;2023-05-10T01:47:11;2.55;;;1.73;;
38725;SDS011;24474;48.906;8.808;2023-05-10T01:49:48;1.77;;;1.10;;
38725;SDS011;24474;48.906;8.808;2023-05-10T01:52:18;2.15;;;1.00;;
38725;SDS011;24474;48.906;8.808;2023-05-10T01:54:55;2.58;;;1.20;;
38725;SDS011;24474;48.906;8.808;2023-05-10T01:57:35;1.98;;;1.20;;
38725;SDS011;24474;48.906;8.808;2023-05-10T02:00:05;2.20;;;1.20;;
38725;SDS011;24474;48.906;8.808;2023-05-10T02:02:42;1.30;;;1.08;;
38725;SDS011;24474;48.906;8.808;2023-05-10T02:05:15;2.17;;;1.40;;
38725;SDS011;24474;48.906;8.808;2023-05-10T02:07:43;1.50;;;1.30;;
38725;SDS011;24474;48.906;8.808;2023-05-10T02:10:11;1.50;;;1.40;;
38725;SDS011;24474;48.906;8.808;2023-05-10T02:12:43;1.80;;;1.42;;
38725;SDS011;24474;48.906;8.808;2023-05-10T02:15:13;2.03;;;1.50;;
38725;SDS011;24474;48.906;8.808;2023-05-10T02:17:44;4.50;;;1.90;;
38725;SDS011;24474;48.906;8.808;2023-05-10T02:20:12;2.13;;;1.80;;
38725;SDS011;24474;48.906;8.808;2023-05-10T02:22:44;2.88;;;1.92;;
38725;SDS011;24474;48.906;8.808;2023-05-10T02:25:17;3.33;;;1.80;;
38725;SDS011;24474;48.906;8.808;2023-05-10T02:27:45;2.53;;;2.00;;
38725;SDS011;24474;48.906;8.808;2023-05-10T02:30:14;2.17;;;1.95;;
38725;SDS011;24474;48.906;8.808;2023-05-10T02:32:42;3.78;;;2.40;;
38725;SDS011;24474;48.906;8.808;2023-05-10T02:35:10;2.47;;;2.28;;
38725;SDS011;24474;48.906;8.808;2023-05-10T02:37:38;7.47;;;2.30;;
38725;SDS011;24474;48.906;8.808;2023-05-10T02:40:08;2.53;;;1.92;;
38725;SDS011;24474;48.906;8.808;2023-05-10T02:42:37;2.40;;;2.20;;
38725;SDS011;24474;48.906;8.808;2023-05-10T02:45:10;2.75;;;2.15;;
38725;SDS011;24474;48.906;8.808;2023-05-10T02:47:39;4.28;;;2.50;;
38725;SDS011;24474;48.906;8.808;2023-05-10T02:50:05;3.10;;;2.63;;
38725;SDS011;24474;48.906;8.808;2023-05-10T02:52:38;3.03;;;2.50;;
38725;SDS011;24474;48.906;8.808;2023-05-10T02:55:26;3.60;;;2.80;;
38725;SDS011;24474;48.906;8.808;2023-05-10T02:57:59;3.47;;;2.47;;
38725;SDS011;24474;48.906;8.808;2023-05-10T03:00:27;3.25;;;2.85;;
38725;SDS011;24474;48.906;8.808;2023-05-10T03:02:54;4.00;;;2.65;;
38725;SDS011;24474;48.906;8.808;2023-05-10T03:05:22;2.90;;;2.63;;
38725;SDS011;24474;48.906;8.808;2023-05-10T03:07:48;4.40;;;2.90;;
38725;SDS011;24474;48.906;8.808;2023-05-10T03:10:16;4.65;;;2.80;;
38725;SDS011;24474;48.906;8.808;2023-05-10T03:19:11;3.30;;;2.80;;
38725;SDS011;24474;48.906;8.808;2023-05-10T03:21:21;3.10;;;2.75;;
38725;SDS011;24474;48.906;8.808;2023-05-10T03:23:58;2.80;;;2.42;;
38725;SDS011;24474;48.906;8.808;2023-05-10T03:26:32;4.15;;;2.28;;
38725;SDS011;24474;48.906;8.808;2023-05-10T03:29:00;5.50;;;2.60;;
38725;SDS011;24474;48.906;8.808;2023-05-10T03:31:28;4.60;;;2.80;;
38725;SDS011;24474;48.906;8.808;2023-05-10T03:33:53;2.75;;;2.10;;
38725;SDS011;24474;48.906;8.808;2023-05-10T03:36:19;2.33;;;2.00;;
38725;SDS011;24474;48.906;8.808;2023-05-10T03:38:46;2.25;;;1.90;;
38725;SDS011;24474;48.906;8.808;2023-05-10T03:41:12;2.65;;;1.83;;
38725;SDS011;24474;48.906;8.808;2023-05-10T03:43:39;2.67;;;1.90;;
38725;SDS011;24474;48.906;8.808;2023-05-10T03:46:06;2.28;;;1.90;;
38725;SDS011;24474;48.906;8.808;2023-05-10T03:48:33;2.10;;;1.90;;
38725;SDS011;24474;48.906;8.808;2023-05-10T03:51:00;3.35;;;2.03;;
38725;SDS011;24474;48.906;8.808;2023-05-10T03:53:26;1.98;;;1.77;;
38725;SDS011;24474;48.906;8.808;2023-05-10T03:55:53;2.78;;;2.10;;
38725;SDS011;24474;48.906;8.808;2023-05-10T03:58:20;3.20;;;2.10;;
38725;SDS011;24474;48.906;8.808;2023-05-10T04:00:47;3.70;;;2.20;;
38725;SDS011;24474;48.906;8.808;2023-05-10T04:03:13;2.28;;;1.70;;
38725;SDS011;24474;48.906;8.808;2023-05-10T04:05:42;2.35;;;2.05;;
38725;SDS011;24474;48.906;8.808;2023-05-10T04:08:09;3.25;;;2.22;;
38725;SDS011;24474;48.906;8.808;2023-05-10T04:10:35;2.53;;;2.03;;
38725;SDS011;24474;48.906;8.808;2023-05-10T04:13:02;3.25;;;2.00;;
38725;SDS011;24474;48.906;8.808;2023-05-10T04:15:27;3.38;;;2.20;;
38725;SDS011;24474;48.906;8.808;2023-05-10T04:17:54;2.17;;;1.98;;
38725;SDS011;24474;48.906;8.808;2023-05-10T04:20:20;2.25;;;1.83;;
38725;SDS011;24474;48.906;8.808;2023-05-10T04:22:47;2.15;;;1.95;;
38725;SDS011;24474;48.906;8.808;2023-05-10T04:25:16;2.15;;;1.80;;
38725;SDS011;24474;48.906;8.808;2023-05-10T04:27:43;2.45;;;1.80;;
38725;SDS011;24474;48.906;8.808;2023-05-10T04:30:10;4.32;;;2.10;;
38725;SDS011;24474;48.906;8.808;2023-05-10T04:32:36;3.70;;;1.98;;
38725;SDS011;24474;48.906;8.808;2023-05-10T04:35:03;2.20;;;1.65;;
38725;SDS011;24474;48.906;8.808;2023-05-10T04:37:30;3.15;;;1.85;;
38725;SDS011;24474;48.906;8.808;2023-05-10T04:39:56;1.88;;;1.73;;
38725;SDS011;24474;48.906;8.808;2023-05-10T04:42:22;3.08;;;1.83;;
38725;SDS011;24474;48.906;8.808;2023-05-10T04:44:47;3.08;;;1.92;;
38725;SDS011;24474;48.906;8.808;2023-05-10T04:47:14;2.45;;;2.10;;
38725;SDS011;24474;48.906;8.808;2023-05-10T04:49:42;2.60;;;1.80;;
38725;SDS011;24474;48.906;8.808;2023-05-10T04:52:09;2.80;;;2.20;;
38725;SDS011;24474;48.906;8.808;2023-05-10T04:54:35;3.00;;;2.33;;
38725;SDS011;24474;48.906;8.808;2023-05-10T04:57:05;2.22;;;2.00;;
38725;SDS011;24474;48.906;8.808;2023-05-10T04:59:32;5.68;;;2.55;;
38725;SDS011;24474;48.906;8.808;2023-05-10T05:02:00;4.25;;;2.50;;
38725;SDS011;24474;48.906;8.808;2023-05-10T05:04:28;3.35;;;2.38;;
38725;SDS011;24474;48.906;8.808;2023-05-10T05:06:56;2.97;;;2.30;;
38725;SDS011;24474;48.906;8.808;2023-05-10T05:09:22;3.40;;;2.40;;
38725;SDS011;24474;48.906;8.808;2023-05-10T05:11:48;2.60;;;2.40;;
38725;SDS011;24474;48.906;8.808;2023-05-10T05:14:15;3.47;;;2.22;;
38725;SDS011;24474;48.906;8.808;2023-05-10T05:16:43;5.07;;;2.60;;
38725;SDS011;24474;48.906;8.808;2023-05-10T05:19:10;5.00;;;2.67;;
38725;SDS011;24474;48.906;8.808;2023-05-10T05:21:37;4.72;;;2.83;;
38725;SDS011;24474;48.906;8.808;2023-05-10T05:24:04;4.45;;;2.80;;
38725;SDS011;24474;48.906;8.808;2023-05-10T05:26:30;4.15;;;3.10;;
38725;SDS011;24474;48.906;8.808;2023-05-10T05:28:57;3.60;;;2.50;;
38725;SDS011;24474;48.906;8.808;2023-05-10T05:31:24;4.10;;;2.85;;
38725;SDS011;24474;48.906;8.808;2023-05-10T05:33:51;2.85;;;2.53;;
38725;SDS011;24474;48.906;8.808;2023-05-10T05:36:17;3.50;;;2.78;;
38725;SDS011;24474;48.906;8.808;2023-05-10T05:38:42;3.85;;;2.67;;
38725;SDS011;24474;48.906;8.808;2023-05-10T05:41:09;4.05;;;2.45;;
38725;SDS011;24474;48.906;8.808;2023-05-10T05:43:37;3.13;;;2.63;;
38725;SDS011;24474;48.906;8.808;2023-05-10T05:46:06;3.97;;;2.50;;
38725;SDS011;24474;48.906;8.808;2023-05-10T05:48:31;2.92;;;2.25;;
38725;SDS011;24474;48.906;8.808;2023-05-10T05:50:57;4.78;;;2.47;;
38725;SDS011;24474;48.906;8.808;2023-05-10T05:53:23;4.32;;;2.78;;
38725;SDS011;24474;48.906;8.808;2023-05-10T05:55:55;4.18;;;2.50;;
38725;SDS011;24474;48.906;8.808;2023-05-10T05:58:22;6.55;;;2.50;;
38725;SDS011;24474;48.906;8.808;2023-05-10T06:00:49;5.20;;;2.47;;
38725;SDS011;24474;48.906;8.808;2023-05-10T06:03:15;3.10;;;2.15;;
38725;SDS011;24474;48.906;8.808;2023-05-10T06:05:41;3.08;;;2.00;;
38725;SDS011;24474;48.906;8.808;2023-05-10T06:08:06;3.17;;;1.95;;
38725;SDS011;24474;48.906;8.808;2023-05-10T06:10:32;3.13;;;1.80;;
38725;SDS011;24474;48.906;8.808;2023-05-10T06:12:58;2.45;;;1.65;;
38725;SDS011;24474;48.906;8.808;2023-05-10T06:15:24;3.47;;;1.40;;
38725;SDS011;24474;48.906;8.808;2023-05-10T06:17:49;5.03;;;1.60;;
38725;SDS011;24474;48.906;8.808;2023-05-10T06:20:16;1.67;;;1.40;;
38725;SDS011;24474;48.906;8.808;2023-05-10T06:22:42;1.95;;;1.20;;
38725;SDS011;24474;48.906;8.808;2023-05-10T06:25:12;3.03;;;1.33;;
38725;SDS011;24474;48.906;8.808;2023-05-10T06:27:39;1.95;;;1.30;;
38725;SDS011;24474;48.906;8.808;2023-05-10T06:30:05;4.72;;;1.60;;
38725;SDS011;24474;48.906;8.808;2023-05-10T06:32:33;3.42;;;1.40;;
38725;SDS011;24474;48.906;8.808;2023-05-10T06:35:08;1.60;;;1.10;;
38725;SDS011;24474;48.906;8.808;2023-05-10T06:37:38;1.50;;;1.10;;
38725;SDS011;24474;48.906;8.808;2023-05-10T06:40:05;2.35;;;1.10;;
38725;SDS011;24474;48.906;8.808;2023-05-10T06:42:35;2.10;;;1.00;;
38725;SDS011;24474;48.906;8.808;2023-05-10T06:45:03;1.48;;;1.17;;
38725;SDS011;24474;48.906;8.808;2023-05-10T06:47:30;1.90;;;1.00;;
38725;SDS011;24474;48.906;8.808;2023-05-10T06:49:56;2.10;;;0.90;;
38725;SDS011;24474;48.906;8.808;2023-05-10T06:52:23;2.10;;;1.00;;
38725;SDS011;24474;48.906;8.808;2023-05-10T06:54:56;1.70;;;1.00;;
38725;SDS011;24474;48.906;8.808;2023-05-10T06:57:24;1.70;;;1.00;;
38725;SDS011;24474;48.906;8.808;2023-05-10T06:59:59;1.88;;;0.80;;
38725;SDS011;24474;48.906;8.808;2023-05-10T07:02:36;2.58;;;0.80;;
38725;SDS011;24474;48.906;8.808;2023-05-10T07:05:02;1.60;;;0.70;;
38725;SDS011;24474;48.906;8.808;2023-05-10T07:07:29;2.15;;;0.82;;
38725;SDS011;24474;48.906;8.808;2023-05-10T07:09:56;1.35;;;0.70;;
38725;SDS011;24474;48.906;8.808;2023-05-10T07:12:24;2.40;;;0.90;;
38725;SDS011;24474;48.906;8.808;2023-05-10T07:14:58;1.55;;;0.70;;
38725;SDS011;24474;48.906;8.808;2023-05-10T07:17:27;3.67;;;0.80;;
38725;SDS011;24474;48.906;8.808;2023-05-10T07:19:59;1.40;;;0.90;;
38725;SDS011;24474;48.906;8.808;2023-05-10T07:22:28;0.98;;;0.85;;
38725;SDS011;24474;48.906;8.808;2023-05-10T07:25:01;1.00;;;0.80;;
38725;SDS011;24474;48.906;8.808;2023-05-10T07:27:31;0.55;;;0.55;;
38725;SDS011;24474;48.906;8.808;2023-05-10T07:29:57;2.40;;;0.55;;
38725;SDS011;24474;48.906;8.808;2023-05-10T07:32:23;2.20;;;0.50;;
38725;SDS011;24474;48.906;8.808;2023-05-10T07:34:51;0.95;;;0.50;;
38725;SDS011;24474;48.906;8.808;2023-05-10T07:37:18;0.82;;;0.63;;
38725;SDS011;24474;48.906;8.808;2023-05-10T07:39:45;0.98;;;0.60;;
38725;SDS011;24474;48.906;8.808;2023-05-10T07:42:12;2.97;;;0.60;;
38725;SDS011;24474;48.906;8.808;2023-05-10T07:44:38;1.58;;;0.63;;
38725;SDS011;24474;48.906;8.808;2023-05-10T07:47:09;0.60;;;0.40;;
38725;SDS011;24474;48.906;8.808;2023-05-10T07:49:34;0.70;;;0.50;;
38725;SDS011;24474;48.906;8.808;2023-05-10T07:52:00;1.10;;;0.50;;
38725;SDS011;24474;48.906;8.808;2023-05-10T07:54:32;1.45;;;0.50;;
38725;SDS011;24474;48.906;8.808;2023-05-10T07:57:10;0.93;;;0.65;;
38725;SDS011;24474;48.906;8.808;2023-05-10T07:59:36;1.10;;;0.57;;
38725;SDS011;24474;48.906;8.808;2023-05-10T08:02:02;2.92;;;0.60;;
38725;SDS011;24474;48.906;8.808;2023-05-10T08:04:30;2.55;;;0.50;;
38725;SDS011;24474;48.906;8.808;2023-05-10T08:07:02;1.95;;;0.55;;
38725;SDS011;24474;48.906;8.808;2023-05-10T08:09:43;2.28;;;0.35;;
38725;SDS011;24474;48.906;8.808;2023-05-10T08:12:13;0.30;;;0.30;;
38725;SDS011;24474;48.906;8.808;2023-05-10T08:14:38;1.25;;;0.50;;
38725;SDS011;24474;48.906;8.808;2023-05-10T08:17:04;3.05;;;0.40;;
38725;SDS011;24474;48.906;8.808;2023-05-10T08:19:31;0.60;;;0.30;;
38725;SDS011;24474;48.906;8.808;2023-05-10T08:21:59;2.47;;;0.40;;
38725;SDS011;24474;48.906;8.808;2023-05-10T08:24:24;0.75;;;0.35;;
38725;SDS011;24474;48.906;8.808;2023-05-10T08:26:52;111.28;;;5.38;;
38725;SDS011;24474;48.906;8.808;2023-05-10T08:29:18;1.95;;;0.50;;
38725;SDS011;24474;48.906;8.808;2023-05-10T08:31:44;0.35;;;0.30;;
38725;SDS011;24474;48.906;8.808;2023-05-10T08:34:13;1.90;;;0.50;;
38725;SDS011;24474;48.906;8.808;2023-05-10T08:36:46;1.05;;;0.40;;
38725;SDS011;24474;48.906;8.808;2023-05-10T08:39:14;0.85;;;0.45;;
38725;SDS011;24474;48.906;8.808;2023-05-10T08:41:43;3.85;;;0.60;;
38725;SDS011;24474;48.906;8.808;2023-05-10T08:44:12;0.82;;;0.40;;
38725;SDS011;24474;48.906;8.808;2023-05-10T08:46:44;1.33;;;0.45;;
38725;SDS011;24474;48.906;8.808;2023-05-10T08:49:13;1.08;;;0.50;;
38725;SDS011;24474;48.906;8.808;2023-05-10T08:51:47;0.80;;;0.43;;
38725;SDS011;24474;48.906;8.808;2023-05-10T08:54:16;2.30;;;0.50;;
38725;SDS011;24474;48.906;8.808;2023-05-10T08:56:48;1.55;;;0.40;;
38725;SDS011;24474;48.906;8.808;2023-05-10T08:59:15;2.28;;;0.60;;
38725;SDS011;24474;48.906;8.808;2023-05-10T09:01:42;1.65;;;0.50;;
38725;SDS011;24474;48.906;8.808;2023-05-10T09:04:20;2.10;;;0.50;;
38725;SDS011;24474;48.906;8.808;2023-05-10T09:06:50;2.73;;;0.40;;
38725;SDS011;24474;48.906;8.808;2023-05-10T09:09:16;0.60;;;0.45;;
38725;SDS011;24474;48.906;8.808;2023-05-10T09:11:43;1.02;;;0.40;;
38725;SDS011;24474;48.906;8.808;2023-05-10T09:14:13;1.30;;;0.50;;
38725;SDS011;24474;48.906;8.808;2023-05-10T09:16:40;2.15;;;0.57;;
38725;SDS011;24474;48.906;8.808;2023-05-10T09:19:06;1.30;;;0.50;;
38725;SDS011;24474;48.906;8.808;2023-05-10T09:21:34;2.10;;;0.60;;
38725;SDS011;24474;48.906;8.808;2023-05-10T09:24:03;1.73;;;0.60;;
38725;SDS011;24474;48.906;8.808;2023-05-10T09:26:30;1.42;;;0.60;;
38725;SDS011;24474;48.906;8.808;2023-05-10T09:28:57;4.68;;;2.05;;
38725;SDS011;24474;48.906;8.808;2023-05-10T09:31:25;10.82;;;7.30;;
38725;SDS011;24474;48.906;8.808;2023-05-10T09:34:38;4.90;;;1.73;;
38725;SDS011;24474;48.906;8.808;2023-05-10T09:37:05;5.97;;;2.97;;
38725;SDS011;24474;48.906;8.808;2023-05-10T09:39:35;5.97;;;3.80;;
38725;SDS011;24474;48.906;8.808;2023-05-10T09:42:03;2.57;;;1.67;;
38725;SDS011;24474;48.906;8.808;2023-05-10T09:44:31;2.63;;;0.70;;
38725;SDS011;24474;48.906;8.808;2023-05-10T09:46:58;1.15;;;0.52;;
38725;SDS011;24474;48.906;8.808;2023-05-10T09:49:24;1.63;;;0.60;;
38725;SDS011;24474;48.906;8.808;2023-05-10T09:52:05;0.80;;;0.47;;
38725;SDS011;24474;48.906;8.808;2023-05-10T09:54:32;0.75;;;0.60;;
38725;SDS011;24474;48.906;8.808;2023-05-10T09:56:59;4.35;;;1.45;;
38725;SDS011;24474;48.906;8.808;2023-05-10T09:59:26;6.75;;;2.90;;
38725;SDS011;24474;48.906;8.808;2023-05-10T10:01:53;2.40;;;0.90;;
38725;SDS011;24474;48.906;8.808;2023-05-10T10:04:21;2.38;;;1.38;;
38725;SDS011;24474;48.906;8.808;2023-05-10T10:06:47;1.80;;;0.50;;
38725;SDS011;24474;48.906;8.808;2023-05-10T10:09:26;1.00;;;0.70;;
38725;SDS011;24474;48.906;8.808;2023-05-10T10:11:52;2.25;;;0.50;;
38725;SDS011;24474;48.906;8.808;2023-05-10T10:14:24;4.28;;;0.70;;
38725;SDS011;24474;48.906;8.808;2023-05-10T10:16:50;3.65;;;0.70;;
38725;SDS011;24474;48.906;8.808;2023-05-10T10:19:19;6.78;;;0.70;;
38725;SDS011;24474;48.906;8.808;2023-05-10T10:21:46;1.30;;;0.55;;
38725;SDS011;24474;48.906;8.808;2023-05-10T10:24:13;2.38;;;0.80;;
38725;SDS011;24474;48.906;8.808;2023-05-10T10:26:42;4.13;;;1.92;;
38725;SDS011;24474;48.906;8.808;2023-05-10T10:32:05;1.85;;;0.60;;
38725;SDS011;24474;48.906;8.808;2023-05-10T10:34:46;3.22;;;0.93;;
38725;SDS011;24474;48.906;8.808;2023-05-10T10:37:13;1.77;;;0.70;;
38725;SDS011;24474;48.906;8.808;2023-05-10T10:39:39;0.98;;;0.60;;
38725;SDS011;24474;48.906;8.808;2023-05-10T10:42:06;1.85;;;0.70;;
38725;SDS011;24474;48.906;8.808;2023-05-10T10:44:38;1.30;;;0.60;;
38725;SDS011;24474;48.906;8.808;2023-05-10T10:49:49;3.22;;;0.80;;
38725;SDS011;24474;48.906;8.808;2023-05-10T10:55:14;3.58;;;1.17;;
38725;SDS011;24474;48.906;8.808;2023-05-10T10:57:48;1.50;;;0.88;;
38725;SDS011;24474;48.906;8.808;2023-05-10T11:00:33;2.92;;;0.98;;
38725;SDS011;24474;48.906;8.808;2023-05-10T11:03:12;3.55;;;1.02;;
38725;SDS011;24474;48.906;8.808;2023-05-10T11:05:47;2.17;;;0.75;;
38725;SDS011;24474;48.906;8.808;2023-05-10T11:08:26;2.40;;;0.90;;
38725;SDS011;24474;48.906;8.808;2023-05-10T11:13:47;2.97;;;1.00;;
38725;SDS011;24474;48.906;8.808;2023-05-10T11:16:14;2.65;;;1.10;;
38725;SDS011;24474;48.906;8.808;2023-05-10T11:19:18;3.83;;;0.93;;
38725;SDS011;24474;48.906;8.808;2023-05-10T11:21:51;3.90;;;1.00;;
38725;SDS011;24474;48.906;8.808;2023-05-10T11:24:38;1.08;;;0.90;;
38725;SDS011;24474;48.906;8.808;2023-05-10T11:27:09;3.58;;;1.00;;
38725;SDS011;24474;48.906;8.808;2023-05-10T11:29:38;2.30;;;1.02;;
38725;SDS011;24474;48.906;8.808;2023-05-10T11:32:14;2.58;;;0.90;;
38725;SDS011;24474;48.906;8.808;2023-05-10T11:35:08;2.28;;;0.63;;
38725;SDS011;24474;48.906;8.808;2023-05-10T11:37:38;3.10;;;0.90;;
38725;SDS011;24474;48.906;8.808;2023-05-10T11:40:08;2.78;;;0.60;;
38725;SDS011;24474;48.906;8.808;2023-05-10T11:42:36;3.42;;;0.70;;
38725;SDS011;24474;48.906;8.808;2023-05-10T11:45:02;2.35;;;0.73;;
38725;SDS011;24474;48.906;8.808;2023-05-10T11:47:28;2.17;;;0.52;;
38725;SDS011;24474;48.906;8.808;2023-05-10T11:49:54;1.95;;;0.70;;
38725;SDS011;24474;48.906;8.808;2023-05-10T11:52:19;1.05;;;0.52;;
38725;SDS011;24474;48.906;8.808;2023-05-10T11:54:52;0.98;;;0.50;;
38725;SDS011;24474;48.906;8.808;2023-05-10T11:57:19;5.00;;;0.80;;
38725;SDS011;24474;48.906;8.808;2023-05-10T11:59:46;2.25;;;0.55;;
38725;SDS011;24474;48.906;8.808;2023-05-10T12:02:13;4.32;;;0.70;;
38725;SDS011;24474;48.906;8.808;2023-05-10T12:04:39;2.60;;;0.60;;
38725;SDS011;24474;48.906;8.808;2023-05-10T12:07:06;3.92;;;0.73;;
38725;SDS011;24474;48.906;8.808;2023-05-10T12:09:31;4.63;;;0.57;;
38725;SDS011;24474;48.906;8.808;2023-05-10T12:11:57;2.78;;;0.60;;
38725;SDS011;24474;48.906;8.808;2023-05-10T12:14:23;1.77;;;0.60;;
38725;SDS011;24474;48.906;8.808;2023-05-10T12:16:49;2.17;;;0.70;;
38725;SDS011;24474;48.906;8.808;2023-05-10T12:19:18;2.00;;;0.60;;
38725;SDS011;24474;48.906;8.808;2023-05-10T12:21:47;4.05;;;0.63;;
38725;SDS011;24474;48.906;8.808;2023-05-10T12:24:13;1.88;;;0.60;;
38725;SDS011;24474;48.906;8.808;2023-05-10T12:26:42;2.45;;;0.60;;
38725;SDS011;24474;48.906;8.808;2023-05-10T12:29:16;2.03;;;0.60;;
38725;SDS011;24474;48.906;8.808;2023-05-10T12:34:26;2.92;;;0.65;;
38725;SDS011;24474;48.906;8.808;2023-05-10T12:36:55;1.15;;;0.50;;
38725;SDS011;24474;48.906;8.808;2023-05-10T12:39:20;2.75;;;0.70;;
38725;SDS011;24474;48.906;8.808;2023-05-10T12:41:46;1.50;;;0.50;;
38725;SDS011;24474;48.906;8.808;2023-05-10T12:44:12;4.95;;;0.70;;
38725;SDS011;24474;48.906;8.808;2023-05-10T12:46:38;2.55;;;0.80;;
38725;SDS011;24474;48.906;8.808;2023-05-10T12:49:03;2.97;;;0.70;;
38725;SDS011;24474;48.906;8.808;2023-05-10T12:51:29;2.08;;;0.80;;
38725;SDS011;24474;48.906;8.808;2023-05-10T12:53:55;1.30;;;0.60;;
38725;SDS011;24474;48.906;8.808;2023-05-10T12:56:21;1.52;;;0.52;;
38725;SDS011;24474;48.906;8.808;2023-05-10T12:58:47;2.22;;;0.68;;
38725;SDS011;24474;48.906;8.808;2023-05-10T13:01:13;2.42;;;0.63;;
38725;SDS011;24474;48.906;8.808;2023-05-10T13:03:39;1.50;;;0.60;;
38725;SDS011;24474;48.906;8.808;2023-05-10T13:06:05;1.77;;;0.80;;
38725;SDS011;24474;48.906;8.808;2023-05-10T13:08:31;2.83;;;0.70;;
38725;SDS011;24474;48.906;8.808;2023-05-10T13:10:58;4.40;;;0.60;;
38725;SDS011;24474;48.906;8.808;2023-05-10T13:13:28;2.33;;;0.57;;
38725;SDS011;24474;48.906;8.808;2023-05-10T13:15:53;4.75;;;0.80;;
38725;SDS011;24474;48.906;8.808;2023-05-10T13:18:19;2.25;;;0.60;;
38725;SDS011;24474;48.906;8.808;2023-05-10T13:20:45;3.30;;;0.52;;
38725;SDS011;24474;48.906;8.808;2023-05-10T13:23:10;3.13;;;0.60;;
38725;SDS011;24474;48.906;8.808;2023-05-10T13:25:36;2.50;;;0.70;;
38725;SDS011;24474;48.906;8.808;2023-05-10T13:28:02;2.42;;;0.63;;
38725;SDS011;24474;48.906;8.808;2023-05-10T13:30:28;1.90;;;0.57;;
38725;SDS011;24474;48.906;8.808;2023-05-10T13:32:54;2.47;;;0.63;;
38725;SDS011;24474;48.906;8.808;2023-05-10T13:35:19;2.88;;;0.70;;
38725;SDS011;24474;48.906;8.808;2023-05-10T13:37:45;1.88;;;0.50;;
38725;SDS011;24474;48.906;8.808;2023-05-10T13:40:11;3.60;;;0.93;;
38725;SDS011;24474;48.906;8.808;2023-05-10T13:42:37;0.85;;;0.47;;
38725;SDS011;24474;48.906;8.808;2023-05-10T13:45:03;2.42;;;0.63;;
38725;SDS011;24474;48.906;8.808;2023-05-10T13:47:29;3.10;;;0.70;;
38725;SDS011;24474;48.906;8.808;2023-05-10T13:49:54;1.90;;;0.52;;
38725;SDS011;24474;48.906;8.808;2023-05-10T13:52:21;6.47;;;0.65;;
38725;SDS011;24474;48.906;8.808;2023-05-10T13:54:46;2.20;;;0.70;;
38725;SDS011;24474;48.906;8.808;2023-05-10T13:57:12;3.90;;;0.68;;
38725;SDS011;24474;48.906;8.808;2023-05-10T13:59:38;2.65;;;0.70;;
38725;SDS011;24474;48.906;8.808;2023-05-10T14:02:04;3.10;;;0.70;;
38725;SDS011;24474;48.906;8.808;2023-05-10T14:04:31;1.88;;;0.65;;
38725;SDS011;24474;48.906;8.808;2023-05-10T14:06:57;0.77;;;0.50;;
38725;SDS011;24474;48.906;8.808;2023-05-10T14:09:22;2.92;;;0.60;;
38725;SDS011;24474;48.906;8.808;2023-05-10T14:11:48;1.38;;;0.40;;
38725;SDS011;24474;48.906;8.808;2023-05-10T14:14:14;1.65;;;0.50;;
38725;SDS011;24474;48.906;8.808;2023-05-10T14:16:43;2.58;;;0.57;;
38725;SDS011;24474;48.906;8.808;2023-05-10T14:19:09;1.58;;;0.40;;
38725;SDS011;24474;48.906;8.808;2023-05-10T14:21:36;0.55;;;0.40;;
38725;SDS011;24474;48.906;8.808;2023-05-10T14:24:02;3.05;;;0.55;;
38725;SDS011;24474;48.906;8.808;2023-05-10T14:26:28;5.60;;;0.60;;
38725;SDS011;24474;48.906;8.808;2023-05-10T14:28:53;1.25;;;0.50;;
38725;SDS011;24474;48.906;8.808;2023-05-10T14:31:19;2.17;;;0.57;;
38725;SDS011;24474;48.906;8.808;2023-05-10T14:33:45;5.68;;;0.80;;
38725;SDS011;24474;48.906;8.808;2023-05-10T14:36:11;3.38;;;0.57;;
38725;SDS011;24474;48.906;8.808;2023-05-10T14:38:38;2.45;;;0.65;;
38725;SDS011;24474;48.906;8.808;2023-05-10T14:41:04;2.85;;;0.80;;
38725;SDS011;24474;48.906;8.808;2023-05-10T14:43:30;2.75;;;0.50;;
38725;SDS011;24474;48.906;8.808;2023-05-10T14:45:56;1.63;;;0.68;;
38725;SDS011;24474;48.906;8.808;2023-05-10T14:48:22;1.92;;;0.68;;
38725;SDS011;24474;48.906;8.808;2023-05-10T14:50:48;3.72;;;0.70;;
38725;SDS011;24474;48.906;8.808;2023-05-10T14:53:17;1.55;;;0.50;;
38725;SDS011;24474;48.906;8.808;2023-05-10T14:55:44;2.80;;;0.60;;
38725;SDS011;24474;48.906;8.808;2023-05-10T14:58:13;0.43;;;0.22;;
38725;SDS011;24474;48.906;8.808;2023-05-10T15:00:40;1.95;;;0.40;;
38725;SDS011;24474;48.906;8.808;2023-05-10T15:03:07;0.30;;;0.30;;
38725;SDS011;24474;48.906;8.808;2023-05-10T15:05:33;1.45;;;0.50;;
38725;SDS011;24474;48.906;8.808;2023-05-10T15:08:00;3.50;;;0.60;;
38725;SDS011;24474;48.906;8.808;2023-05-10T15:10:26;2.90;;;0.50;;
38725;SDS011;24474;48.906;8.808;2023-05-10T15:12:52;0.85;;;0.57;;
38725;SDS011;24474;48.906;8.808;2023-05-10T15:15:19;1.23;;;0.50;;
38725;SDS011;24474;48.906;8.808;2023-05-10T15:17:45;3.05;;;0.57;;
38725;SDS011;24474;48.906;8.808;2023-05-10T15:20:12;1.02;;;0.50;;
38725;SDS011;24474;48.906;8.808;2023-05-10T15:22:39;1.05;;;0.40;;
38725;SDS011;24474;48.906;8.808;2023-05-10T15:25:06;0.85;;;0.38;;
38725;SDS011;24474;48.906;8.808;2023-05-10T15:27:31;0.52;;;0.43;;
38725;SDS011;24474;48.906;8.808;2023-05-10T15:29:57;1.83;;;0.60;;
38725;SDS011;24474;48.906;8.808;2023-05-10T15:32:24;3.63;;;0.70;;
38725;SDS011;24474;48.906;8.808;2023-05-10T15:34:50;2.05;;;0.70;;